Terminal Aerodrome Forecast
Issued by NWS

Home | Current Version | Previous Version | Text Only | Print | Product List | Glossary On
Versions: 1 2 3 4 5 6 7 8 9 10 11 12 13 14 15 16 17
000
FTUS45 KTFX 231400 AAA
TAFHLN
TAF AMD
KHLN 231425Z 2314/2412 29008KT 3SM RA BR OVC025
     FM231800 30008KT 5SM -RA BR OVC028
     FM240000 32010KT 6SM -RA OVC010=

USA.gov is the U.S. government's official web portal to all federal, state and local government web resources and services.